Time;durP1;ratioP1;P1;durP2;ratioP2;P2;SDS_P1;SDS_P2;PMS_P1;PMS_P2;Temp;Humidity;BMP_temperature;BMP_pressure;BME280_temperature;BME280_humidity;BME280_pressure;Samples;Min_cycle;Max_cycle;Signal;HPM_P1;HPM_P2
2022/10/17 00:00:52;;;;;;;10.60;5.40;;;16.30;99.90;;;;;;5021503;28;20192;-72
2022/10/17 00:03:19;;;;;;;11.80;6.40;;;16.40;99.90;;;;;;5010976;28;20585;-72
2022/10/17 00:05:47;;;;;;;14.03;5.97;;;16.40;99.90;;;;;;5044882;28;20227;-71
2022/10/17 00:08:17;;;;;;;12.30;5.87;;;16.40;99.90;;;;;;5045091;28;20223;-72
2022/10/17 00:10:43;;;;;;;14.33;6.10;;;16.40;99.90;;;;;;5038579;28;20202;-72
2022/10/17 00:13:11;;;;;;;14.43;5.70;;;16.40;99.90;;;;;;5039252;28;20200;-72
2022/10/17 00:15:38;;;;;;;12.23;5.63;;;16.30;99.90;;;;;;5021838;28;20246;-72
2022/10/17 00:18:04;;;;;;;10.20;5.40;;;16.30;99.90;;;;;;5020499;28;20181;-71
2022/10/17 00:20:34;;;;;;;11.47;5.50;;;16.30;99.90;;;;;;5044667;28;20199;-72
2022/10/17 00:23:02;;;;;;;9.53;4.80;;;16.30;99.90;;;;;;5035559;28;20192;-72
2022/10/17 00:25:28;;;;;;;11.00;6.00;;;16.30;99.90;;;;;;5044231;28;20220;-70
2022/10/17 00:27:55;;;;;;;16.57;5.73;;;16.30;99.90;;;;;;5028812;28;20188;-70
2022/10/17 00:30:23;;;;;;;19.93;6.00;;;16.30;99.90;;;;;;5027827;28;20192;-72
2022/10/17 00:32:52;;;;;;;13.40;5.70;;;16.30;99.90;;;;;;5023790;28;20203;-72
2022/10/17 00:35:18;;;;;;;16.43;5.90;;;16.20;99.90;;;;;;5029548;28;20207;-72
2022/10/17 00:37:45;;;;;;;14.37;5.50;;;16.20;99.90;;;;;;5021601;28;20913;-72
2022/10/17 00:40:11;;;;;;;11.20;5.37;;;16.20;99.90;;;;;;5029827;28;20187;-72
2022/10/17 00:42:38;;;;;;;12.23;5.30;;;16.20;99.90;;;;;;5027692;28;20727;-72
2022/10/17 00:45:17;;;;;;;12.73;5.43;;;16.20;99.90;;;;;;5034166;28;20226;-72
2022/10/17 00:47:50;;;;;;;13.87;5.23;;;16.20;99.90;;;;;;5031965;28;20183;-72
2022/10/17 00:50:19;;;;;;;11.80;5.30;;;16.20;99.90;;;;;;5047827;28;20187;-72
2022/10/17 00:52:47;;;;;;;11.20;5.00;;;16.20;99.90;;;;;;5049699;28;20172;-72
2022/10/17 00:55:28;;;;;;;12.03;5.70;;;16.20;99.90;;;;;;5026576;28;20192;-72
2022/10/17 00:57:58;;;;;;;11.07;5.70;;;16.10;99.90;;;;;;5006825;28;20355;-72
2022/10/17 01:00:25;;;;;;;11.53;5.80;;;16.10;99.90;;;;;;5041064;28;20187;-72
2022/10/17 01:02:51;;;;;;;10.47;4.90;;;16.00;99.90;;;;;;5031648;28;20188;-72
2022/10/17 01:05:19;;;;;;;11.83;4.90;;;16.10;99.90;;;;;;5016564;28;20304;-72
2022/10/17 01:07:49;;;;;;;14.27;5.00;;;16.10;99.90;;;;;;5039138;28;20187;-72
2022/10/17 01:10:17;;;;;;;12.73;5.10;;;16.20;99.90;;;;;;5032783;28;20230;-72
2022/10/17 01:12:58;;;;;;;13.13;5.43;;;16.00;99.90;;;;;;5028726;28;20196;-69
2022/10/17 01:16:10;;;;;;;12.67;6.10;;;16.00;99.90;;;;;;5027597;28;20242;-69
2022/10/17 01:19:20;;;;;;;9.03;5.83;;;16.10;99.90;;;;;;5035495;28;20209;-69
2022/10/17 01:22:09;;;;;;;14.17;5.67;;;16.10;99.90;;;;;;5021021;28;20201;-69
2022/10/17 01:25:04;;;;;;;10.63;5.57;;;16.10;99.90;;;;;;5042252;28;20287;-71
2022/10/17 01:28:00;;;;;;;13.73;5.67;;;16.10;99.90;;;;;;5027882;28;20198;-69
2022/10/17 01:31:20;;;;;;;11.23;5.10;;;16.10;99.90;;;;;;5028962;28;20203;-69
2022/10/17 01:34:18;;;;;;;14.03;5.50;;;16.20;99.90;;;;;;5028260;28;20224;-69
2022/10/17 01:36:56;;;;;;;10.03;4.20;;;16.10;99.90;;;;;;5027978;28;20280;-70
2022/10/17 01:39:58;;;;;;;11.47;3.43;;;16.20;99.90;;;;;;5028474;28;20184;-69
2022/10/17 01:42:52;;;;;;;5.13;3.37;;;16.20;99.90;;;;;;5013110;28;20199;-71
2022/10/17 01:45:41;;;;;;;5.77;3.13;;;16.20;99.90;;;;;;5044334;28;20184;-70
2022/10/17 01:48:18;;;;;;;7.40;3.23;;;16.10;99.90;;;;;;5028863;28;20207;-69
2022/10/17 01:50:56;;;;;;;6.43;3.07;;;16.20;99.90;;;;;;5030053;28;20219;-69
2022/10/17 01:53:37;;;;;;;5.20;2.43;;;16.20;99.90;;;;;;5029221;28;20188;-69
2022/10/17 01:56:08;;;;;;;4.20;2.03;;;16.10;99.90;;;;;;5029053;28;20295;-69
2022/10/17 01:58:54;;;;;;;9.23;2.20;;;16.00;99.90;;;;;;5025774;28;20612;-69
2022/10/17 02:01:23;;;;;;;6.60;1.73;;;16.00;99.90;;;;;;5027454;28;20188;-71
2022/10/17 02:03:52;;;;;;;3.37;1.57;;;16.00;99.90;;;;;;5034265;28;20200;-68
2022/10/17 02:06:18;;;;;;;10.40;1.57;;;15.90;99.90;;;;;;5037009;28;20227;-68
2022/10/17 02:08:48;;;;;;;4.50;1.50;;;15.90;99.90;;;;;;5024143;28;20201;-68
2022/10/17 02:11:26;;;;;;;3.27;1.40;;;15.80;99.90;;;;;;5023235;28;20194;-68
2022/10/17 02:14:05;;;;;;;3.60;1.60;;;15.90;99.90;;;;;;5029699;28;20187;-71
2022/10/17 02:16:45;;;;;;;3.80;1.30;;;15.90;99.90;;;;;;5030580;28;20199;-68
2022/10/17 02:19:44;;;;;;;2.63;1.47;;;15.90;99.90;;;;;;5014539;28;20582;-68
2022/10/17 02:22:44;;;;;;;3.13;1.13;;;15.90;99.90;;;;;;5011950;28;20196;-68
2022/10/17 02:29:16;;;;;;;4.63;1.00;;;15.80;99.90;;;;;;5019148;28;20207;-69
2022/10/17 02:32:01;;;;;;;2.70;1.20;;;15.80;99.90;;;;;;5030166;28;20192;-70
2022/10/17 02:34:43;;;;;;;4.30;1.00;;;15.80;99.90;;;;;;5030945;28;20188;-68
2022/10/17 02:37:15;;;;;;;1.50;1.00;;;15.80;99.90;;;;;;5013768;28;20573;-70
2022/10/17 02:39:43;;;;;;;1.40;0.80;;;15.80;99.90;;;;;;5039764;28;20275;-70
2022/10/17 02:42:13;;;;;;;3.77;0.87;;;15.80;99.90;;;;;;5024892;28;20764;-70
2022/10/17 02:44:43;;;;;;;1.30;1.00;;;15.80;99.90;;;;;;5040665;28;20191;-69
2022/10/17 02:47:26;;;;;;;2.20;0.80;;;15.80;99.90;;;;;;5035465;28;20266;-71
2022/10/17 02:49:57;;;;;;;0.70;0.70;;;15.70;99.90;;;;;;5028444;28;20187;-71
2022/10/17 02:52:42;;;;;;;1.20;0.97;;;15.80;99.90;;;;;;5031202;28;20200;-71
2022/10/17 02:55:25;;;;;;;1.83;0.90;;;15.80;99.90;;;;;;5026211;28;20180;-71
2022/10/17 02:58:05;;;;;;;2.37;1.10;;;15.80;99.90;;;;;;5030928;28;20184;-71
2022/10/17 03:00:32;;;;;;;4.03;1.40;;;15.90;99.90;;;;;;5028664;28;21029;-71
2022/10/17 03:02:58;;;;;;;4.47;1.43;;;15.80;99.90;;;;;;5038221;28;20203;-71
2022/10/17 03:05:28;;;;;;;2.27;1.60;;;15.80;99.90;;;;;;5030071;28;20217;-71
2022/10/17 03:07:56;;;;;;;4.70;1.70;;;15.90;99.90;;;;;;5021045;28;20199;-71
2022/10/17 03:10:22;;;;;;;2.97;1.53;;;15.90;99.90;;;;;;5022859;28;20192;-71
2022/10/17 03:12:49;;;;;;;3.03;1.60;;;16.00;99.90;;;;;;5032459;28;20184;-70
2022/10/17 03:15:15;;;;;;;4.83;2.00;;;16.00;99.90;;;;;;5024787;28;20190;-71
2022/10/17 03:17:41;;;;;;;4.10;1.73;;;16.00;99.90;;;;;;5027713;28;20212;-71
2022/10/17 03:20:08;;;;;;;4.33;1.80;;;16.00;99.90;;;;;;5029222;28;20188;-71
2022/10/17 03:22:34;;;;;;;4.83;1.97;;;16.00;99.90;;;;;;5046598;28;20188;-71
2022/10/17 03:25:01;;;;;;;2.33;1.60;;;16.00;99.90;;;;;;5046217;28;20188;-71
2022/10/17 03:27:27;;;;;;;2.23;1.80;;;16.00;99.90;;;;;;5038463;28;20212;-71
2022/10/17 03:29:53;;;;;;;2.90;1.80;;;16.00;99.90;;;;;;5051100;28;20196;-71
2022/10/17 03:32:20;;;;;;;5.97;2.13;;;16.00;99.90;;;;;;5027926;28;20242;-71
2022/10/17 03:34:46;;;;;;;4.03;1.73;;;16.10;99.90;;;;;;5030774;28;20588;-71
2022/10/17 03:38:11;;;;;;;3.97;1.70;;;16.10;99.90;;;;;;5010711;28;20275;-71
2022/10/17 03:40:38;;;;;;;3.07;1.60;;;16.00;99.90;;;;;;5029816;28;20182;-70
2022/10/17 03:43:05;;;;;;;3.40;1.63;;;16.10;99.90;;;;;;5028328;28;20775;-71
2022/10/17 03:46:21;;;;;;;2.00;1.70;;;16.10;99.90;;;;;;5033215;28;20273;-71
2022/10/17 03:48:47;;;;;;;4.00;1.83;;;16.10;99.90;;;;;;5037701;28;20562;-71
2022/10/17 03:51:15;;;;;;;4.97;1.67;;;16.10;99.90;;;;;;5026696;28;20196;-71
2022/10/17 03:53:43;;;;;;;2.93;1.60;;;16.10;99.90;;;;;;5029834;28;20530;-71
2022/10/17 03:56:22;;;;;;;2.50;1.70;;;16.10;99.90;;;;;;5030400;28;20172;-71
2022/10/17 03:58:49;;;;;;;3.33;1.60;;;16.10;99.90;;;;;;5031704;28;20184;-71
2022/10/17 04:01:17;;;;;;;2.07;1.50;;;16.00;99.90;;;;;;5028049;28;20221;-71
2022/10/17 04:03:50;;;;;;;2.10;1.53;;;16.00;99.90;;;;;;5037347;28;20222;-71
2022/10/17 04:06:17;;;;;;;2.83;1.50;;;16.00;99.90;;;;;;5043680;28;20215;-70
2022/10/17 04:08:44;;;;;;;2.70;1.53;;;16.00;99.90;;;;;;5030911;28;20173;-71
2022/10/17 04:11:16;;;;;;;4.70;1.50;;;16.00;99.90;;;;;;5025958;28;20192;-71
2022/10/17 04:13:44;;;;;;;3.63;1.70;;;16.00;99.90;;;;;;5012946;28;20185;-71
2022/10/17 04:16:15;;;;;;;2.17;1.67;;;16.10;99.90;;;;;;5028227;28;20188;-71
2022/10/17 04:18:43;;;;;;;2.93;1.57;;;16.10;99.90;;;;;;5047855;28;20191;-71
2022/10/17 04:21:11;;;;;;;3.17;1.50;;;16.10;99.90;;;;;;5029447;28;20188;-71
2022/10/17 04:23:39;;;;;;;4.13;1.20;;;16.10;99.90;;;;;;5030083;28;20928;-71
2022/10/17 04:26:06;;;;;;;4.87;1.47;;;16.10;99.90;;;;;;5032074;28;20209;-71
2022/10/17 04:28:33;;;;;;;1.57;1.27;;;16.00;99.90;;;;;;5034713;28;20187;-71
2022/10/17 04:31:13;;;;;;;4.40;1.40;;;16.00;99.90;;;;;;5028263;28;20200;-71
2022/10/17 04:33:41;;;;;;;2.77;1.40;;;16.00;99.90;;;;;;5045536;28;20184;-71
2022/10/17 04:36:12;;;;;;;2.73;1.70;;;16.00;99.90;;;;;;5029785;28;20188;-71
2022/10/17 04:38:39;;;;;;;3.13;1.40;;;16.00;99.90;;;;;;5045236;28;20245;-71
2022/10/17 04:41:11;;;;;;;3.93;1.90;;;16.00;99.90;;;;;;5033005;28;20199;-71
2022/10/17 04:43:39;;;;;;;1.73;1.50;;;16.10;99.90;;;;;;5028202;28;20191;-71
2022/10/17 04:46:12;;;;;;;1.40;1.27;;;16.10;99.90;;;;;;5029677;28;20224;-71
2022/10/17 04:48:40;;;;;;;2.50;1.50;;;16.00;99.90;;;;;;5022006;28;20222;-71
2022/10/17 04:51:20;;;;;;;3.47;1.63;;;16.10;99.90;;;;;;5042708;28;20184;-71
2022/10/17 04:53:47;;;;;;;2.60;1.60;;;16.10;99.90;;;;;;5011392;28;20199;-71
2022/10/17 04:56:18;;;;;;;2.23;1.43;;;16.10;99.90;;;;;;5028621;28;20875;-71
2022/10/17 04:58:46;;;;;;;1.40;1.30;;;16.10;99.90;;;;;;5030008;28;20645;-71
2022/10/17 05:01:17;;;;;;;2.20;1.30;;;16.20;99.90;;;;;;5038371;28;20231;-71
2022/10/17 05:18:28;;;;;;;3.23;1.83;;;16.50;99.90;;;;;;5031664;28;20193;-71
2022/10/17 05:20:56;;;;;;;2.43;1.40;;;16.50;99.90;;;;;;5023199;28;20199;-71
2022/10/17 05:23:22;;;;;;;1.50;1.40;;;16.50;99.90;;;;;;5036209;28;20180;-71
2022/10/17 05:25:54;;;;;;;2.57;1.40;;;16.60;99.90;;;;;;5064355;28;20290;-71
2022/10/17 05:28:22;;;;;;;4.13;1.50;;;16.60;99.90;;;;;;5038910;28;20191;-71
2022/10/17 05:30:48;;;;;;;2.13;1.60;;;16.60;99.90;;;;;;5017931;28;20231;-71
2022/10/17 05:33:15;;;;;;;3.90;1.60;;;16.70;99.90;;;;;;5027148;28;20192;-71
2022/10/17 05:35:42;;;;;;;9.13;1.77;;;16.70;99.90;;;;;;5011983;28;20263;-71
2022/10/17 05:38:09;;;;;;;3.87;1.60;;;16.80;99.90;;;;;;5022098;28;20200;-71
2022/10/17 05:40:38;;;;;;;3.00;1.40;;;16.80;99.90;;;;;;5037235;28;20669;-71
2022/10/17 05:43:04;;;;;;;3.50;1.87;;;16.80;99.90;;;;;;5043689;28;20215;-71
2022/10/17 05:45:31;;;;;;;2.40;1.60;;;16.90;99.90;;;;;;5028230;28;20215;-71
2022/10/17 05:47:58;;;;;;;2.10;1.60;;;16.90;99.90;;;;;;5044864;28;20618;-71
2022/10/17 05:50:24;;;;;;;2.20;1.50;;;16.90;99.90;;;;;;5030300;28;20707;-71
2022/10/17 05:52:54;;;;;;;3.33;1.70;;;16.90;99.90;;;;;;5027631;28;20192;-71
2022/10/17 05:55:22;;;;;;;5.53;2.13;;;16.90;99.90;;;;;;5026589;28;20646;-71
2022/10/17 05:57:51;;;;;;;2.27;1.73;;;16.90;99.90;;;;;;5034954;28;20222;-71
2022/10/17 06:00:18;;;;;;;4.67;1.50;;;16.90;99.90;;;;;;5020651;28;20199;-71
2022/10/17 06:02:46;;;;;;;2.57;1.70;;;16.80;99.90;;;;;;5025869;28;20185;-71
2022/10/17 06:05:14;;;;;;;4.13;1.60;;;16.90;99.90;;;;;;5031339;28;20198;-71
2022/10/17 06:07:41;;;;;;;1.90;1.50;;;16.90;99.90;;;;;;5043890;28;20666;-71
2022/10/17 06:10:08;;;;;;;4.37;1.40;;;16.90;99.90;;;;;;5023871;28;20645;-71
2022/10/17 06:12:35;;;;;;;5.13;1.57;;;17.00;99.90;;;;;;5042665;28;20314;-71
2022/10/17 06:15:01;;;;;;;6.00;1.60;;;17.00;99.90;;;;;;5018929;28;20212;-71
2022/10/17 06:17:29;;;;;;;2.33;1.60;;;17.10;99.90;;;;;;5024844;28;20639;-72
2022/10/17 06:19:56;;;;;;;7.70;1.60;;;17.10;99.90;;;;;;5037926;28;20604;-72
2022/10/17 06:22:23;;;;;;;2.93;1.60;;;17.20;99.90;;;;;;5041605;28;20216;-72
2022/10/17 06:24:49;;;;;;;4.40;2.03;;;17.30;99.90;;;;;;5023286;28;20275;-72
2022/10/17 06:27:15;;;;;;;5.37;2.03;;;17.30;99.90;;;;;;5027757;28;20208;-72
2022/10/17 06:29:41;;;;;;;3.77;1.47;;;17.30;99.90;;;;;;5024717;28;20193;-72
2022/10/17 06:32:07;;;;;;;3.30;1.60;;;17.30;99.90;;;;;;5019993;28;20185;-72
2022/10/17 06:34:34;;;;;;;2.73;1.50;;;17.30;99.90;;;;;;5003430;28;20180;-71
2022/10/17 06:37:00;;;;;;;3.97;1.50;;;17.40;99.90;;;;;;5025773;28;20679;-72
2022/10/17 06:39:32;;;;;;;3.00;1.70;;;17.50;99.90;;;;;;5027800;28;20193;-72
2022/10/17 06:42:00;;;;;;;2.07;1.60;;;17.50;99.90;;;;;;5035710;28;20246;-72
2022/10/17 06:44:30;;;;;;;7.30;2.27;;;17.50;99.90;;;;;;5026700;28;20223;-72
2022/10/17 06:46:58;;;;;;;3.30;1.60;;;17.50;99.90;;;;;;5024446;28;20624;-72
2022/10/17 06:49:24;;;;;;;4.63;1.80;;;17.60;99.90;;;;;;5021592;28;20550;-72
2022/10/17 06:51:51;;;;;;;1.80;1.50;;;17.60;99.90;;;;;;5023603;28;20220;-72
2022/10/17 06:54:17;;;;;;;2.33;1.53;;;17.70;99.90;;;;;;5020212;28;20564;-72
2022/10/17 06:56:44;;;;;;;6.80;2.00;;;17.70;99.90;;;;;;5039327;28;20251;-72
2022/10/17 06:59:10;;;;;;;4.53;1.60;;;17.70;99.90;;;;;;5009409;28;20188;-72
2022/10/17 07:01:37;;;;;;;1.77;1.57;;;17.80;99.90;;;;;;5024777;28;20672;-72
2022/10/17 07:04:03;;;;;;;2.80;1.70;;;17.90;99.90;;;;;;5024393;28;20246;-72
2022/10/17 07:06:30;;;;;;;3.63;1.73;;;17.90;99.90;;;;;;5020428;28;20211;-71
2022/10/17 07:08:57;;;;;;;4.50;2.17;;;18.00;99.90;;;;;;5046081;28;20204;-71
2022/10/17 07:11:24;;;;;;;6.73;2.20;;;18.10;99.90;;;;;;5021741;28;20192;-71
2022/10/17 07:13:50;;;;;;;5.80;2.00;;;18.10;99.90;;;;;;5019403;28;20267;-71
2022/10/17 07:16:17;;;;;;;2.93;1.90;;;18.10;99.90;;;;;;5024707;28;20216;-69
2022/10/17 07:18:47;;;;;;;2.57;1.50;;;18.10;99.90;;;;;;5025134;28;20184;-71
2022/10/17 07:21:14;;;;;;;5.27;1.90;;;18.10;99.90;;;;;;5024422;28;20187;-69
2022/10/17 07:23:40;;;;;;;4.37;1.63;;;18.10;99.90;;;;;;5020399;28;20206;-71
2022/10/17 07:26:10;;;;;;;1.97;1.53;;;18.10;99.90;;;;;;5026212;28;20207;-71
2022/10/17 07:28:40;;;;;;;4.10;1.63;;;18.10;99.90;;;;;;5029643;28;20181;-71
2022/10/17 07:31:14;;;;;;;2.50;1.50;;;18.10;99.90;;;;;;5035581;28;20238;-71
2022/10/17 07:33:41;;;;;;;4.83;1.70;;;18.20;99.90;;;;;;5028342;28;20188;-71
2022/10/17 07:36:08;;;;;;;4.63;1.87;;;18.30;99.90;;;;;;5006668;28;20209;-72
2022/10/17 07:38:35;;;;;;;3.50;1.90;;;18.30;99.90;;;;;;5018263;28;20215;-72
2022/10/17 07:41:06;;;;;;;5.07;2.30;;;18.30;99.90;;;;;;5025984;28;20238;-70
2022/10/17 07:43:34;;;;;;;7.03;3.23;;;18.40;99.90;;;;;;5020034;28;20199;-71
2022/10/17 07:46:02;;;;;;;6.70;3.67;;;18.60;99.90;;;;;;5022584;28;20224;-69
2022/10/17 07:48:29;;;;;;;7.20;2.80;;;18.90;99.90;;;;;;5023557;28;20226;-69
2022/10/17 07:50:55;;;;;;;5.43;2.50;;;18.90;99.90;;;;;;5023432;28;20849;-69
2022/10/17 07:53:22;;;;;;;4.37;2.17;;;18.90;99.90;;;;;;5040148;28;20194;-71
2022/10/17 07:55:48;;;;;;;3.43;2.40;;;18.90;99.90;;;;;;5018956;28;20698;-70
2022/10/17 07:58:15;;;;;;;4.70;2.07;;;19.00;99.90;;;;;;5026419;28;20192;-70
2022/10/17 08:00:42;;;;;;;9.00;2.13;;;19.10;99.90;;;;;;5041430;28;20211;-69
2022/10/17 08:03:10;;;;;;;4.63;1.90;;;19.10;99.90;;;;;;5026987;28;20654;-69
2022/10/17 08:05:36;;;;;;;5.33;1.90;;;19.10;99.90;;;;;;5026863;28;20243;-70
2022/10/17 08:08:02;;;;;;;10.57;2.27;;;19.10;99.90;;;;;;5044888;28;20200;-69
2022/10/17 08:10:28;;;;;;;5.27;2.53;;;19.20;99.90;;;;;;5024322;28;20196;-69
2022/10/17 08:12:56;;;;;;;6.37;2.67;;;19.20;99.90;;;;;;5022010;28;20196;-70
2022/10/17 08:15:25;;;;;;;3.83;2.20;;;19.30;99.90;;;;;;5028896;28;20180;-69
2022/10/17 08:17:54;;;;;;;11.23;2.90;;;19.40;99.90;;;;;;5005460;28;20269;-69
2022/10/17 08:20:21;;;;;;;6.23;2.60;;;19.50;99.90;;;;;;5022165;28;20181;-69
2022/10/17 08:22:54;;;;;;;19.43;2.97;;;19.60;99.90;;;;;;5026024;28;20176;-71
2022/10/17 08:25:21;;;;;;;8.87;2.53;;;19.50;99.90;;;;;;5021960;28;20188;-69
2022/10/17 08:27:48;;;;;;;13.70;2.93;;;19.60;99.90;;;;;;5020927;28;20180;-71
2022/10/17 08:30:15;;;;;;;11.30;3.47;;;19.50;99.90;;;;;;5022865;28;20774;-71
2022/10/17 08:32:41;;;;;;;12.40;4.27;;;19.60;99.90;;;;;;5040822;28;20188;-71
2022/10/17 08:35:08;;;;;;;14.17;4.77;;;19.60;99.90;;;;;;5017440;28;20413;-70
2022/10/17 08:37:35;;;;;;;16.93;5.60;;;19.60;99.90;;;;;;5033904;28;20207;-70
2022/10/17 08:40:01;;;;;;;11.23;5.00;;;19.60;99.90;;;;;;5023598;28;20204;-71
2022/10/17 08:43:22;;;;;;;14.57;5.00;;;19.60;99.90;;;;;;5021182;28;20322;-70
2022/10/17 08:46:01;;;;;;;16.33;5.70;;;19.50;99.90;;;;;;5017575;28;21267;-71
2022/10/17 08:48:38;;;;;;;12.80;5.40;;;19.50;99.90;;;;;;5027340;28;20684;-71
2022/10/17 08:51:16;;;;;;;13.93;5.07;;;19.50;99.90;;;;;;5024337;28;20188;-70
2022/10/17 08:54:15;;;;;;;19.23;4.67;;;19.60;99.90;;;;;;5028895;28;20195;-71
2022/10/17 08:56:48;;;;;;;15.97;5.10;;;19.60;99.90;;;;;;5013713;28;20653;-71
2022/10/17 08:59:29;;;;;;;19.23;5.53;;;19.60;99.90;;;;;;5017676;28;20187;-71
2022/10/17 09:02:02;;;;;;;11.20;5.20;;;19.50;99.90;;;;;;5032130;28;20223;-70
2022/10/17 09:05:06;;;;;;;15.53;4.90;;;19.40;99.90;;;;;;5020528;28;20988;-70
2022/10/17 09:07:40;;;;;;;16.90;5.73;;;19.30;99.90;;;;;;5023161;28;20208;-70
2022/10/17 09:10:32;;;;;;;16.37;5.50;;;19.20;99.90;;;;;;5034473;28;20176;-70
2022/10/17 09:13:35;;;;;;;13.23;5.33;;;19.20;99.90;;;;;;5026851;28;20188;-70
2022/10/17 09:16:38;;;;;;;16.37;5.50;;;19.10;99.90;;;;;;5015813;28;20206;-70
2022/10/17 09:19:17;;;;;;;14.77;5.93;;;19.00;99.90;;;;;;5022481;28;20192;-69
2022/10/17 09:21:56;;;;;;;16.93;5.30;;;18.90;99.90;;;;;;5034643;28;20287;-69
2022/10/17 09:24:42;;;;;;;17.40;5.03;;;18.80;99.90;;;;;;5015960;28;20647;-70
2022/10/17 09:27:32;;;;;;;11.63;5.47;;;18.70;99.90;;;;;;5026882;28;20681;-70
2022/10/17 09:30:41;;;;;;;14.50;5.20;;;18.70;99.90;;;;;;5014193;28;20188;-70
2022/10/17 09:33:37;;;;;;;14.43;4.90;;;18.60;99.90;;;;;;5019555;28;20860;-69
2022/10/17 09:36:33;;;;;;;9.80;4.23;;;18.60;99.90;;;;;;5021352;28;20666;-69
2022/10/17 09:39:11;;;;;;;12.27;4.73;;;18.50;99.90;;;;;;5022400;28;20562;-69
2022/10/17 09:42:00;;;;;;;10.03;4.27;;;18.40;99.90;;;;;;4998997;28;20910;-70
2022/10/17 09:44:41;;;;;;;7.77;3.67;;;18.30;99.90;;;;;;5016047;28;20192;-70
2022/10/17 09:47:44;;;;;;;13.73;4.13;;;18.30;99.90;;;;;;5023840;28;20219;-70
2022/10/17 09:50:38;;;;;;;7.40;3.40;;;18.30;99.90;;;;;;5019783;28;20222;-70
2022/10/17 09:53:32;;;;;;;7.00;3.50;;;18.20;99.90;;;;;;5016646;28;20234;-70
2022/10/17 09:56:06;;;;;;;11.93;3.70;;;18.20;99.90;;;;;;5018368;28;20203;-70
2022/10/17 09:58:56;;;;;;;9.27;3.87;;;18.20;99.90;;;;;;5018055;28;20230;-70
2022/10/17 10:01:30;;;;;;;6.73;3.50;;;18.30;99.90;;;;;;5017859;28;20530;-70
2022/10/17 10:04:15;;;;;;;9.70;3.70;;;18.30;99.90;;;;;;5019871;28;20188;-70
2022/10/17 10:07:05;;;;;;;12.00;3.67;;;18.30;99.90;;;;;;5019908;28;20217;-70
2022/10/17 10:09:36;;;;;;;10.33;3.50;;;18.30;99.90;;;;;;5041945;28;20568;-70
2022/10/17 10:12:17;;;;;;;7.93;3.50;;;18.30;99.90;;;;;;5011991;28;20187;-70
2022/10/17 10:14:45;;;;;;;4.40;2.97;;;18.40;99.90;;;;;;5022678;28;20195;-70
2022/10/17 10:17:33;;;;;;;9.53;3.40;;;18.40;99.90;;;;;;5030477;28;20664;-70
2022/10/17 10:20:20;;;;;;;7.90;3.33;;;18.50;99.90;;;;;;5021210;28;20681;-70
2022/10/17 10:23:23;;;;;;;5.23;2.90;;;18.50;99.90;;;;;;5000647;28;20558;-70
2022/10/17 10:25:56;;;;;;;8.83;3.47;;;18.60;99.90;;;;;;5019639;28;20709;-69
2022/10/17 10:28:34;;;;;;;4.63;3.10;;;18.60;99.90;;;;;;5017081;28;20189;-70
2022/10/17 10:31:08;;;;;;;6.67;3.13;;;18.60;99.90;;;;;;5019946;28;20203;-70
2022/10/17 10:33:43;;;;;;;5.30;2.77;;;18.60;99.90;;;;;;5038736;28;20192;-70
2022/10/17 10:36:09;;;;;;;4.93;2.80;;;18.60;99.90;;;;;;5023960;28;20190;-70
2022/10/17 10:38:41;;;;;;;5.00;2.53;;;18.60;99.90;;;;;;5043319;28;20974;-70
2022/10/17 10:41:10;;;;;;;5.77;3.03;;;18.50;99.90;;;;;;5020676;28;20734;-70
2022/10/17 10:43:45;;;;;;;5.07;2.70;;;18.50;99.90;;;;;;5024538;28;20322;-69
2022/10/17 10:46:27;;;;;;;5.70;2.80;;;18.40;99.90;;;;;;5022973;28;20222;-69
2022/10/17 10:49:02;;;;;;;5.43;2.83;;;18.40;99.90;;;;;;5019919;28;20188;-70
2022/10/17 10:51:46;;;;;;;5.83;2.57;;;18.40;99.90;;;;;;5024451;28;20675;-69
2022/10/17 10:54:33;;;;;;;5.50;2.50;;;18.40;99.90;;;;;;5039279;28;20204;-70
2022/10/17 10:57:09;;;;;;;4.57;1.80;;;18.30;99.90;;;;;;5044868;28;20192;-70
2022/10/17 10:59:51;;;;;;;2.70;1.53;;;18.20;99.90;;;;;;5021276;28;20196;-70
2022/10/17 11:03:01;;;;;;;4.70;1.80;;;18.10;99.90;;;;;;5027549;28;20192;-70
2022/10/17 11:05:40;;;;;;;4.70;1.60;;;18.00;99.90;;;;;;5021346;28;20180;-70
2022/10/17 11:08:39;;;;;;;3.00;1.77;;;18.10;99.90;;;;;;5017270;28;20239;-70
2022/10/17 11:11:28;;;;;;;3.20;1.70;;;18.00;99.90;;;;;;5018849;28;20192;-70
2022/10/17 11:14:10;;;;;;;3.63;2.00;;;18.10;99.90;;;;;;5021715;28;20685;-70
2022/10/17 11:17:07;;;;;;;3.43;1.80;;;18.10;99.90;;;;;;5021572;28;20184;-69
2022/10/17 11:20:05;;;;;;;5.63;1.90;;;18.10;99.90;;;;;;5023299;28;20279;-70
2022/10/17 11:22:47;;;;;;;4.23;1.80;;;18.10;99.90;;;;;;4985852;28;20659;-70
2022/10/17 11:25:35;;;;;;;4.90;2.13;;;18.10;99.90;;;;;;5029609;28;20191;-70
2022/10/17 11:28:11;;;;;;;4.30;2.23;;;18.10;99.90;;;;;;5022955;28;20242;-69
2022/10/17 11:31:12;;;;;;;5.37;2.30;;;18.10;99.90;;;;;;5043238;28;20223;-69
2022/10/17 11:33:45;;;;;;;8.07;2.50;;;18.10;99.90;;;;;;5023466;28;20267;-69
2022/10/17 11:36:19;;;;;;;6.17;2.30;;;18.10;99.90;;;;;;5023221;28;20270;-69
2022/10/17 11:39:09;;;;;;;9.10;2.27;;;18.10;99.90;;;;;;5036444;28;20230;-69
2022/10/17 11:42:00;;;;;;;6.47;2.60;;;18.00;99.90;;;;;;5028457;28;20200;-69
2022/10/17 11:44:36;;;;;;;4.30;2.13;;;18.00;99.90;;;;;;5021902;28;20246;-69
2022/10/17 11:47:35;;;;;;;5.80;1.77;;;18.00;99.90;;;;;;5015963;28;20285;-69
2022/10/17 11:50:36;;;;;;;5.50;2.10;;;18.00;99.90;;;;;;5021128;28;20306;-69
2022/10/17 11:53:13;;;;;;;8.00;2.30;;;18.00;99.90;;;;;;5020383;28;20585;-69
2022/10/17 11:55:42;;;;;;;5.03;2.07;;;18.10;99.90;;;;;;5032546;28;20177;-70
2022/10/17 11:58:42;;;;;;;3.60;1.83;;;18.10;99.90;;;;;;5041269;28;20208;-71
2022/10/17 12:01:48;;;;;;;2.67;1.60;;;18.10;99.90;;;;;;5018428;28;20184;-69
2022/10/17 12:04:51;;;;;;;1.93;1.57;;;18.10;99.90;;;;;;5020668;28;20195;-69
2022/10/17 12:07:32;;;;;;;2.43;1.27;;;18.20;99.90;;;;;;5033636;28;20203;-71
2022/10/17 12:10:23;;;;;;;4.53;1.30;;;18.10;99.90;;;;;;5029006;28;20188;-69
2022/10/17 12:12:49;;;;;;;4.40;1.20;;;18.10;99.90;;;;;;5042924;28;20177;-69
2022/10/17 12:15:23;;;;;;;1.27;0.93;;;18.10;99.90;;;;;;5020126;28;20192;-71
2022/10/17 12:18:04;;;;;;;1.00;0.90;;;18.10;99.90;;;;;;5028421;28;20192;-69
2022/10/17 12:20:33;;;;;;;4.37;1.00;;;18.10;99.90;;;;;;5019632;28;20200;-69
2022/10/17 12:23:25;;;;;;;6.73;1.70;;;18.10;99.90;;;;;;5022234;28;20199;-69
2022/10/17 12:26:00;;;;;;;2.47;1.10;;;18.00;99.90;;;;;;5023551;28;20306;-69
2022/10/17 12:28:42;;;;;;;2.80;1.07;;;18.00;99.90;;;;;;5032554;28;20673;-69
2022/10/17 12:31:21;;;;;;;2.90;1.07;;;17.90;99.90;;;;;;5019959;28;20250;-69
2022/10/17 12:33:49;;;;;;;0.77;0.70;;;17.80;99.90;;;;;;5043570;28;20183;-69
2022/10/17 12:36:23;;;;;;;0.80;0.70;;;17.80;99.90;;;;;;5023413;28;20845;-69
2022/10/17 12:39:01;;;;;;;3.20;0.90;;;17.80;99.90;;;;;;5028424;28;20221;-69
2022/10/17 12:41:42;;;;;;;1.57;0.83;;;17.70;99.90;;;;;;5020671;28;20250;-69
2022/10/17 12:44:20;;;;;;;5.73;1.47;;;17.70;99.90;;;;;;5027797;28;20538;-69
2022/10/17 12:46:50;;;;;;;6.63;1.80;;;17.70;99.90;;;;;;5025691;28;20218;-69
2022/10/17 12:49:35;;;;;;;4.63;1.40;;;17.70;99.90;;;;;;5042638;28;20230;-69
2022/10/17 12:52:34;;;;;;;2.40;1.00;;;17.60;99.90;;;;;;5024818;28;20565;-69
2022/10/17 12:55:07;;;;;;;2.57;1.40;;;17.60;99.90;;;;;;5021122;28;20199;-70
2022/10/17 12:58:10;;;;;;;1.50;1.00;;;17.50;99.90;;;;;;5027218;28;20192;-69
2022/10/17 13:01:14;;;;;;;1.83;0.87;;;17.50;99.90;;;;;;5018713;28;20196;-69
2022/10/17 13:03:47;;;;;;;0.83;0.80;;;17.50;99.90;;;;;;5027765;28;20204;-69
2022/10/17 13:06:23;;;;;;;2.23;1.10;;;17.40;99.90;;;;;;5022323;28;20572;-69
2022/10/17 13:09:02;;;;;;;1.40;0.60;;;17.40;99.90;;;;;;5019351;28;20198;-69
2022/10/17 13:11:34;;;;;;;2.03;0.90;;;17.40;99.90;;;;;;5028652;28;20325;-69
2022/10/17 13:14:10;;;;;;;0.90;0.73;;;17.40;99.90;;;;;;5023424;28;20195;-70
2022/10/17 13:16:40;;;;;;;3.13;0.90;;;17.50;99.90;;;;;;5040228;28;20270;-70
2022/10/17 13:19:16;;;;;;;0.77;0.77;;;17.50;99.90;;;;;;5024148;28;20557;-71
2022/10/17 13:22:00;;;;;;;1.80;0.57;;;17.60;99.90;;;;;;5024867;28;20215;-71
2022/10/17 13:24:42;;;;;;;4.30;0.83;;;17.50;99.90;;;;;;5023627;28;20280;-70
2022/10/17 13:27:21;;;;;;;2.93;0.73;;;17.60;99.90;;;;;;5023205;28;20242;-70
2022/10/17 13:29:48;;;;;;;1.53;0.70;;;17.60;99.90;;;;;;5022763;28;20238;-69
2022/10/17 13:32:18;;;;;;;1.60;0.90;;;17.60;99.90;;;;;;5039777;28;20883;-69
2022/10/17 13:34:44;;;;;;;1.00;0.80;;;17.60;99.90;;;;;;5021542;28;20188;-69
2022/10/17 13:37:15;;;;;;;1.50;0.90;;;17.70;99.90;;;;;;5018283;28;20188;-69
2022/10/17 13:39:45;;;;;;;1.70;0.90;;;17.70;99.90;;;;;;5024487;28;20282;-69
2022/10/17 13:42:38;;;;;;;5.40;0.80;;;17.80;99.90;;;;;;5010718;28;20580;-70
2022/10/17 13:45:19;;;;;;;2.30;0.93;;;17.80;99.90;;;;;;5004302;28;20597;-69
2022/10/17 13:47:46;;;;;;;2.30;1.10;;;17.80;99.90;;;;;;5030791;28;20223;-71